Hlavní strana
METAR-TAF:

METAR-TAF

Letiště :

Paganella, Itálie

zeměpisná šířka: 46-09N, zeměpisná délka: 011-02E, výška: 2125 m

Aktuální stav počasí

Zpráva byla vytvořena před 54 minutami, v 03:55 UTC
Severní vítr 12 kt
Teplota -5°C
Vlhkost vzduchu 100%
Tlak 1011 hPa
Viditelnost do 50 m
slabé sněžení, mrznoucí mlha

METAR: LIVP 180355Z 01012KT 0000 -SN FZFG VV/// M05/M05 Q1011 RMK MON INVIS VAL INVIS VIS MIN 0000

Čas: 05:49 (04:49 UTC)


TAF: chybějící

Stav a předpovědi počasí z více než 4 000 letišť (zprávy METAR a TAF).

Červené a žluté tečky na mapě představují dostupné meteorologické stanice.

Když kurzor umístíte na tečku, zobrazí se název stanice.

Pak kliknutím zobrazíte stav a předpověď počasí.

Chcete-li změnit mapu, kliknutím na zelené tlačítko se znaménkem +mapu přiblížíte, kliknutím na zelené tlačítko se znaménkem – mapu oddálíte a kliknutím na zelené šipky přejdete na sousední mapy.


METAR-TAF: